My Meet Scores
Aubrey Hoyt, Wilmette Gymnastics - MyMeetScores.com
Top100 | Top Teams | Upcoming Meets | Completed Meets | Latest | Add Scores | Help| Support | Bookmark and Share

Aubrey Hoyt, Wilmette Gymnastics
Personal Bests
LevelVault BarsBeamFloorAA
48.9009.450 9.5008.90035.925
58.8008.450 8.4508.72533.675
Meet Scores
Date Meet Team Session Level Division Vault Bars Beam Floor AA
2021-02-27 2021 Energym Spring Classic Wilmette Gymnastics 4 5 SrA 8.200 10 8.300 9T 8.450 8T 8.725 6T 33.675 8
2021-02-19 BIG Classic 2021 Wilmette Gymnastics VIR 5 *** 8.800 55T 8.450 48T 0.000 78T 8.150 72 25.400 78
2020-03-06 Illinois Level 4 State Championships Wilmette Gymnastics 7 4 Sr D 8.600 21 9.250 8T 9.500 5T 8.500 25T 35.850 17
2020-02-21 Kinetic Classic Wilmette Gymnastics 07 4 Older 8.800 18T 9.250 14T 9.250 13 8.625 25 35.925 18
2020-01-24 Uga Invitational Wilmette Gymnastics B3 4 Jr C 8.375 9 9.450 3 8.950 3 8.450 2 35.225 3
2019-12-20 2019 Women's Hawaiian Pineapple Classic Wilmette Gymnastics 7A 4 Age 11 8.750 4 9.175 3 8.875 8 8.800 6 35.600 3
2019-12-06 Ultimate Wish Classic Wilmette Gymnastics 7 4 Sr B 8.050 9 9.150 2 9.175 4 8.675 7 35.050 4
2019-03-22 Illinois Gymnastics State Championships Wilmette Gymnastics 5 4 JR D 8.350 26 8.925 22 8.900 23 8.900 17T 35.075 20
2019-02-15 Big ClassicBIG CLASSIC Wilmette Gymnastics 5A 4 Child D 8.600 6 8.425 10 9.200 7 8.100 13 34.325 8
2019-02-01 St. Valentines Classic Wilmette Gymnastics 4A 4 10 yrs. 8.900 2 8.700 8T 8.700 8T 8.650 12T 34.950 7
2019-01-25 UGA Invitational Wilmette Gymnastics B06 4 Jr A 8.425 11 8.900 13T 9.000 12 8.050 14T 34.375 15
2018-12-14 Hawaiian Pineapple Classic Wilmette Gymnastics 9B 4 Age10 8.800 5 8.550 9T 8.825 5T 7.850 5 34.025 4
2018-11-30 Ultimate Wish Classic Wilmette Gymnastics 3 4 SR A 8.375 12T 9.150 8 7.925 20 8.500 15T 33.950 17
2018-11-17 Paul Hamm Thanksgiving Class WOMENS Wilmette Gymnastics 6 4 Middle 0.000 32 8.750 18T 8.600 23T 8.700 25 26.050 32T
2018-11-03 Phyllis Matras Invite Wilmette Gymnastics All 4 All 7.600 66T 8.350 39 8.450 27T 8.550 38 32.950 42T
2018-02-16 Big Classic Wilmette Gymnastics 10B 4 Child B 7.475 15 7.900 15 7.900 17 8.000 17 31.275 16
2018-01-26 2018 UGA Classic Wilmette Gymnastics B5 4 Junior 7.550 13 7.250 14 8.650 9 7.575 14 31.025 15
2017-12-14 2017 Women's Hawaiian Pineapple Classic Wilmette Gymnastics 6A 4 Age9 6.950 24 6.600 25 7.500 19 5.350 26 26.400 24
2017-12-01 Ultimate Wish Classic Wilmette Gymnastics 12 4 Jr B 7.350 17 6.300 17 7.700 14 7.150 18T 28.500 18
2017-11-16 Paul Hamm Thanksgiving Classic - Women Wilmette Gymnastics 6 4 Younger 7.650 19 6.900 22 7.550 21 6.350 23 28.450 22
2017-11-04 Phyllis Matras Invite Wilmette Gymnastics 4 Jr C 7.850 10 0.000 12 7.500 9 6.200 12 21.550 12
Get your scores on
a t-shirt, pin, or hoodie